Time,TemperatureF,DewpointF,PressureIn,WindDirection,WindDirectionDegrees,WindSpeedMPH,WindSpeedGustMPH,Humidity,HourlyPrecipIn,Conditions,Clouds,dailyrainin,SoftwareType,DateUTC
2013-01-03 00:02:00,4.1,-1.8,30.26,South,184,0.0,0.0,76,0.00,,,0.00,vanprod-2.5-rc3,2013-01-03 07:02:00,
2013-01-03 00:07:00,4.1,-1.8,30.26,South,184,0.0,0.0,76,0.00,,,0.00,vanprod-2.5-rc3,2013-01-03 07:07:00,
2013-01-03 00:12:00,4.1,-1.5,30.26,South,183,0.0,0.0,77,0.00,,,0.00,vanprod-2.5-rc3,2013-01-03 07:12:00,
2013-01-03 00:17:00,4.4,-1.2,30.26,South,173,0.0,0.0,77,0.00,,,0.00,vanprod-2.5-rc3,2013-01-03 07:17:00,
2013-01-03 00:22:00,4.4,-1.5,30.26,ESE,121,0.0,0.0,76,0.00,,,0.00,vanprod-2.5-rc3,2013-01-03 07:22:00,
2013-01-03 00:27:00,4.6,-1.3,30.27,East,91,0.0,0.0,76,0.00,,,0.00,vanprod-2.5-rc3,2013-01-03 07:27:00,
2013-01-03 00:32:00,4.7,-1.2,30.26,East,92,0.0,0.0,76,0.00,,,0.00,vanprod-2.5-rc3,2013-01-03 07:32:00,
2013-01-03 00:37:00,4.5,-1.7,30.26,East,92,0.0,0.0,75,0.00,,,0.00,vanprod-2.5-rc3,2013-01-03 07:37:00,
2013-01-03 00:42:00,4.0,-2.1,30.26,ESE,114,0.0,0.0,75,0.00,,,0.00,vanprod-2.5-rc3,2013-01-03 07:42:00,
2013-01-03 00:47:00,3.5,-2.9,30.26,ESE,114,0.0,0.0,74,0.00,,,0.00,vanprod-2.5-rc3,2013-01-03 07:47:00,
2013-01-03 00:52:00,3.3,-2.5,30.25,ESE,114,0.0,0.0,76,0.00,,,0.00,vanprod-2.5-rc3,2013-01-03 07:52:00,
2013-01-03 00:57:00,3.3,-2.3,30.25,ESE,119,0.0,0.0,77,0.00,,,0.00,vanprod-2.5-rc3,2013-01-03 07:57:00,
2013-01-03 01:02:00,3.4,-2.2,30.26,ESE,119,0.0,0.0,77,0.00,,,0.00,vanprod-2.5-rc3,2013-01-03 08:02:00,
2013-01-03 01:07:00,3.0,-2.8,30.27,ESE,119,0.0,0.0,76,0.00,,,0.00,vanprod-2.5-rc3,2013-01-03 08:07:00,
2013-01-03 01:12:00,2.8,-2.8,30.27,ESE,119,0.0,0.0,77,0.00,,,0.00,vanprod-2.5-rc3,2013-01-03 08:12:00,
2013-01-03 01:17:00,2.6,-3.0,30.27,East,95,0.0,0.0,77,0.00,,,0.00,vanprod-2.5-rc3,2013-01-03 08:17:00,
2013-01-03 01:22:00,2.7,-2.9,30.27,ENE,68,0.0,0.0,77,0.00,,,0.00,vanprod-2.5-rc3,2013-01-03 08:22:00,
2013-01-03 01:27:00,2.8,-2.5,30.27,ENE,75,0.0,0.0,78,0.00,,,0.00,vanprod-2.5-rc3,2013-01-03 08:27:00,
2013-01-03 01:32:00,2.8,-2.8,30.26,ENE,64,5.0,7.0,77,0.00,,,0.00,vanprod-2.5-rc3,2013-01-03 08:32:00,
2013-01-03 01:37:00,2.7,-2.6,30.26,ENE,68,2.0,7.0,78,0.00,,,0.00,vanprod-2.5-rc3,2013-01-03 08:37:00,
2013-01-03 01:42:00,2.6,-3.0,30.26,ENE,68,8.0,11.0,77,0.00,,,0.00,vanprod-2.5-rc3,2013-01-03 08:42:00,
2013-01-03 01:47:00,2.6,-3.0,30.27,ENE,76,7.0,10.0,77,0.00,,,0.00,vanprod-2.5-rc3,2013-01-03 08:47:00,
2013-01-03 01:52:00,2.4,-3.1,30.26,East,82,4.0,5.0,77,0.00,,,0.00,vanprod-2.5-rc3,2013-01-03 08:52:00,
2013-01-03 01:57:00,2.3,-3.2,30.26,East,81,4.0,5.0,77,0.00,,,0.00,vanprod-2.5-rc3,2013-01-03 08:57:00,
2013-01-03 02:02:00,2.2,-3.3,30.26,East,82,5.0,6.0,77,0.00,,,0.00,vanprod-2.5-rc3,2013-01-03 09:02:00,
2013-01-03 02:07:00,2.2,-3.3,30.26,East,85,4.0,5.0,77,0.00,,,0.00,vanprod-2.5-rc3,2013-01-03 09:07:00,
2013-01-03 02:12:00,2.2,-3.3,30.26,ESE,107,2.0,3.0,77,0.00,,,0.00,vanprod-2.5-rc3,2013-01-03 09:12:00,
2013-01-03 02:17:00,2.3,-3.2,30.27,ESE,109,0.0,0.0,77,0.00,,,0.00,vanprod-2.5-rc3,2013-01-03 09:17:00,
2013-01-03 02:22:00,2.0,-3.8,30.27,ESE,109,0.0,0.0,76,0.00,,,0.00,vanprod-2.5-rc3,2013-01-03 09:22:00,
2013-01-03 02:27:00,1.9,-3.9,30.27,East,100,0.0,3.0,76,0.00,,,0.00,vanprod-2.5-rc3,2013-01-03 09:27:00,
2013-01-03 02:32:00,1.6,-4.2,30.27,East,86,5.0,5.0,76,0.00,,,0.00,vanprod-2.5-rc3,2013-01-03 09:32:00,
2013-01-03 02:37:00,1.8,-3.7,30.27,East,81,6.0,9.0,77,0.00,,,0.00,vanprod-2.5-rc3,2013-01-03 09:37:00,
2013-01-03 02:42:00,2.2,-3.3,30.27,ENE,70,5.0,5.0,77,0.00,,,0.00,vanprod-2.5-rc3,2013-01-03 09:42:00,
2013-01-03 02:47:00,2.3,-3.2,30.27,East,79,5.0,6.0,77,0.00,,,0.00,vanprod-2.5-rc3,2013-01-03 09:47:00,
2013-01-03 02:52:00,2.4,-3.1,30.27,ENE,68,5.0,5.0,77,0.00,,,0.00,vanprod-2.5-rc3,2013-01-03 09:52:00,
2013-01-03 02:57:00,2.3,-3.2,30.27,ENE,71,3.0,4.0,77,0.00,,,0.00,vanprod-2.5-rc3,2013-01-03 09:57:00,
2013-01-03 03:02:00,2.0,-3.8,30.27,ENE,73,6.0,8.0,76,0.00,,,0.00,vanprod-2.5-rc3,2013-01-03 10:02:00,
2013-01-03 03:07:00,2.0,-3.5,30.27,ENE,76,8.0,11.0,77,0.00,,,0.00,vanprod-2.5-rc3,2013-01-03 10:07:00,
2013-01-03 03:12:00,2.1,-3.2,30.27,East,79,7.0,7.0,78,0.00,,,0.00,vanprod-2.5-rc3,2013-01-03 10:12:00,
2013-01-03 03:17:00,2.3,-3.0,30.27,East,79,6.0,7.0,78,0.00,,,0.00,vanprod-2.5-rc3,2013-01-03 10:17:00,
2013-01-03 03:22:00,2.5,-3.1,30.27,East,98,4.0,5.0,77,0.00,,,0.00,vanprod-2.5-rc3,2013-01-03 10:22:00,
2013-01-03 03:27:00,2.5,-3.1,30.27,ESE,113,2.0,3.0,77,0.00,,,0.00,vanprod-2.5-rc3,2013-01-03 10:27:00,
2013-01-03 03:32:00,2.8,-2.5,30.28,SE,127,0.0,0.0,78,0.00,,,0.00,vanprod-2.5-rc3,2013-01-03 10:32:00,
2013-01-03 03:37:00,2.8,-3.0,30.28,SE,127,0.0,0.0,76,0.00,,,0.00,vanprod-2.5-rc3,2013-01-03 10:37:00,
2013-01-03 03:42:00,2.8,-2.8,30.28,SE,126,0.0,0.0,77,0.00,,,0.00,vanprod-2.5-rc3,2013-01-03 10:42:00,
2013-01-03 03:47:00,2.8,-2.8,30.28,SE,125,0.0,0.0,77,0.00,,,0.00,vanprod-2.5-rc3,2013-01-03 10:47:00,
2013-01-03 03:52:00,2.5,-3.3,30.28,SE,126,0.0,0.0,76,0.00,,,0.00,vanprod-2.5-rc3,2013-01-03 10:52:00,
2013-01-03 03:57:00,2.1,-4.0,30.28,SE,126,0.0,0.0,75,0.00,,,0.00,vanprod-2.5-rc3,2013-01-03 10:57:00,
2013-01-03 04:02:00,1.6,-4.5,30.29,SE,126,0.0,0.0,75,0.00,,,0.00,vanprod-2.5-rc3,2013-01-03 11:02:00,
2013-01-03 04:07:00,1.2,-4.9,30.28,SE,126,0.0,0.0,75,0.00,,,0.00,vanprod-2.5-rc3,2013-01-03 11:07:00,
2013-01-03 04:12:00,0.9,-4.9,30.28,SE,126,0.0,0.0,76,0.00,,,0.00,vanprod-2.5-rc3,2013-01-03 11:12:00,
2013-01-03 04:17:00,0.8,-5.0,30.29,SE,126,0.0,0.0,76,0.00,,,0.00,vanprod-2.5-rc3,2013-01-03 11:17:00,
2013-01-03 04:22:00,0.5,-5.3,30.29,SE,126,0.0,0.0,76,0.00,,,0.00,vanprod-2.5-rc3,2013-01-03 11:22:00,
2013-01-03 04:27:00,0.1,-5.7,30.29,SE,126,0.0,0.0,76,0.00,,,0.00,vanprod-2.5-rc3,2013-01-03 11:27:00,
2013-01-03 04:32:00,-0.1,-5.6,30.29,SE,126,0.0,0.0,77,0.00,,,0.00,vanprod-2.5-rc3,2013-01-03 11:32:00,
2013-01-03 04:37:00,-0.2,-5.7,30.29,SE,138,0.0,0.0,77,0.00,,,0.00,vanprod-2.5-rc3,2013-01-03 11:37:00,
2013-01-03 04:42:00,0.0,-5.2,30.29,SSE,161,0.0,0.0,78,0.00,,,0.00,vanprod-2.5-rc3,2013-01-03 11:42:00,
2013-01-03 04:47:00,0.1,-5.1,30.29,SSE,167,0.0,0.0,78,0.00,,,0.00,vanprod-2.5-rc3,2013-01-03 11:47:00,
2013-01-03 04:52:00,0.2,-5.0,30.29,SSE,167,0.0,0.0,78,0.00,,,0.00,vanprod-2.5-rc3,2013-01-03 11:52:00,
2013-01-03 04:57:00,0.3,-4.9,30.29,SSE,164,0.0,0.0,78,0.00,,,0.00,vanprod-2.5-rc3,2013-01-03 11:57:00,
2013-01-03 05:02:00,0.1,-5.4,30.30,East,85,0.0,0.0,77,0.00,,,0.00,vanprod-2.5-rc3,2013-01-03 12:02:00,
2013-01-03 05:07:00,-0.3,-6.0,30.30,East,83,0.0,0.0,76,0.00,,,0.00,vanprod-2.5-rc3,2013-01-03 12:07:00,
2013-01-03 05:12:00,-0.6,-6.1,30.29,East,83,0.0,0.0,77,0.00,,,0.00,vanprod-2.5-rc3,2013-01-03 12:12:00,
2013-01-03 05:17:00,-0.6,-6.1,30.29,East,83,0.0,0.0,77,0.00,,,0.00,vanprod-2.5-rc3,2013-01-03 12:17:00,
2013-01-03 05:22:00,-0.4,-5.6,30.30,ESE,115,0.0,2.0,78,0.00,,,0.00,vanprod-2.5-rc3,2013-01-03 12:22:00,
2013-01-03 05:27:00,-0.2,-5.1,30.30,ESE,116,2.0,2.0,79,0.00,,,0.00,vanprod-2.5-rc3,2013-01-03 12:27:00,
2013-01-03 05:32:00,0.0,-5.0,30.30,ESE,117,0.0,0.0,79,0.00,,,0.00,vanprod-2.5-rc3,2013-01-03 12:32:00,
2013-01-03 05:37:00,-0.2,-5.7,30.30,ESE,111,0.0,3.0,77,0.00,,,0.00,vanprod-2.5-rc3,2013-01-03 12:37:00,
2013-01-03 05:42:00,-0.6,-6.1,30.29,East,88,2.0,4.0,77,0.00,,,0.00,vanprod-2.5-rc3,2013-01-03 12:42:00,
2013-01-03 05:47:00,-0.8,-6.3,30.29,East,79,1.0,5.0,77,0.00,,,0.00,vanprod-2.5-rc3,2013-01-03 12:47:00,
2013-01-03 05:52:00,-0.7,-5.9,30.30,ENE,78,3.0,0.0,78,0.00,,,0.00,vanprod-2.5-rc3,2013-01-03 12:52:00,
2013-01-03 05:57:00,-0.5,-5.7,30.30,ENE,77,0.0,0.0,78,0.00,,,0.00,vanprod-2.5-rc3,2013-01-03 12:57:00,
2013-01-03 06:02:00,-0.6,-5.8,30.32,East,80,1.0,0.0,78,0.00,,,0.00,vanprod-2.5-rc3,2013-01-03 13:02:00,
2013-01-03 06:07:00,-0.7,-6.2,30.32,East,81,2.0,2.0,77,0.00,,,0.00,vanprod-2.5-rc3,2013-01-03 13:07:00,
2013-01-03 06:12:00,-0.8,-6.3,30.32,East,83,1.0,1.0,77,0.00,,,0.00,vanprod-2.5-rc3,2013-01-03 13:12:00,
2013-01-03 06:17:00,-1.0,-6.2,30.32,East,83,0.0,0.0,78,0.00,,,0.00,vanprod-2.5-rc3,2013-01-03 13:17:00,
2013-01-03 06:22:00,-0.8,-6.0,30.32,East,91,1.0,3.0,78,0.00,,,0.00,vanprod-2.5-rc3,2013-01-03 13:22:00,
2013-01-03 06:27:00,-0.7,-5.9,30.32,East,96,3.0,3.0,78,0.00,,,0.00,vanprod-2.5-rc3,2013-01-03 13:27:00,
2013-01-03 06:32:00,-0.7,-5.9,30.32,ENE,72,5.0,5.0,78,0.00,,,0.00,vanprod-2.5-rc3,2013-01-03 13:32:00,
2013-01-03 06:37:00,-0.5,-5.7,30.32,East,81,4.0,4.0,78,0.00,,,0.00,vanprod-2.5-rc3,2013-01-03 13:37:00,
2013-01-03 06:42:00,-0.4,-5.6,30.31,East,87,4.0,4.0,78,0.00,,,0.00,vanprod-2.5-rc3,2013-01-03 13:42:00,
2013-01-03 06:47:00,-0.2,-5.4,30.31,East,80,4.0,0.0,78,0.00,,,0.00,vanprod-2.5-rc3,2013-01-03 13:47:00,
2013-01-03 06:52:00,-0.1,-5.3,30.31,East,83,2.0,0.0,78,0.00,,,0.00,vanprod-2.5-rc3,2013-01-03 13:52:00,
2013-01-03 06:57:00,0.1,-5.1,30.31,East,83,0.0,0.0,78,0.00,,,0.00,vanprod-2.5-rc3,2013-01-03 13:57:00,
2013-01-03 07:02:00,0.2,-5.0,30.31,East,83,0.0,0.0,78,0.00,,,0.00,vanprod-2.5-rc3,2013-01-03 14:02:00,
2013-01-03 07:07:00,0.1,-5.4,30.32,East,79,0.0,0.0,77,0.00,,,0.00,vanprod-2.5-rc3,2013-01-03 14:07:00,
2013-01-03 07:12:00,0.0,-5.2,30.32,East,92,0.0,0.0,78,0.00,,,0.00,vanprod-2.5-rc3,2013-01-03 14:12:00,
2013-01-03 07:17:00,0.1,-5.1,30.32,East,92,0.0,0.0,78,0.00,,,0.00,vanprod-2.5-rc3,2013-01-03 14:17:00,
2013-01-03 07:22:00,0.0,-5.5,30.32,East,100,0.0,0.0,77,0.00,,,0.00,vanprod-2.5-rc3,2013-01-03 14:22:00,
2013-01-03 07:27:00,0.0,-5.5,30.32,ESE,107,0.0,0.0,77,0.00,,,0.00,vanprod-2.5-rc3,2013-01-03 14:27:00,
2013-01-03 07:32:00,0.0,-5.5,30.32,ESE,103,0.0,0.0,77,0.00,,,0.00,vanprod-2.5-rc3,2013-01-03 14:32:00,
2013-01-03 07:37:00,-0.3,-6.0,30.32,ESE,103,2.0,0.0,76,0.00,,,0.00,vanprod-2.5-rc3,2013-01-03 14:37:00,
2013-01-03 07:42:00,-0.5,-6.0,30.34,East,101,2.0,3.0,77,0.00,,,0.00,vanprod-2.5-rc3,2013-01-03 14:42:00,
2013-01-03 07:47:00,-0.8,-6.5,30.34,East,96,2.0,3.0,76,0.00,,,0.00,vanprod-2.5-rc3,2013-01-03 14:47:00,
2013-01-03 07:52:00,-1.1,-6.8,30.34,East,91,3.0,5.0,76,0.00,,,0.00,vanprod-2.5-rc3,2013-01-03 14:52:00,
2013-01-03 07:57:00,-1.0,-6.5,30.34,ENE,77,2.0,0.0,77,0.00,,,0.00,vanprod-2.5-rc3,2013-01-03 14:57:00,
2013-01-03 08:02:00,-0.5,-5.7,30.33,ENE,72,4.0,4.0,78,0.00,,,0.00,vanprod-2.5-rc3,2013-01-03 15:02:00,
2013-01-03 08:07:00,-0.1,-5.3,30.34,ENE,78,4.0,4.0,78,0.00,,,0.00,vanprod-2.5-rc3,2013-01-03 15:07:00,
2013-01-03 08:12:00,0.2,-5.0,30.34,ENE,78,0.0,0.0,78,0.00,,,0.00,vanprod-2.5-rc3,2013-01-03 15:12:00,
2013-01-03 08:17:00,0.5,-5.0,30.34,East,85,0.0,0.0,77,0.00,,,0.00,vanprod-2.5-rc3,2013-01-03 15:17:00,
2013-01-03 08:22:00,0.7,-4.8,30.35,ENE,78,0.0,0.0,77,0.00,,,0.00,vanprod-2.5-rc3,2013-01-03 15:22:00,
2013-01-03 08:27:00,0.8,-5.0,30.35,East,81,0.0,0.0,76,0.00,,,0.00,vanprod-2.5-rc3,2013-01-03 15:27:00,
2013-01-03 08:32:00,1.0,-4.8,30.35,East,88,3.0,3.0,76,0.00,,,0.00,vanprod-2.5-rc3,2013-01-03 15:32:00,
2013-01-03 08:37:00,1.3,-4.2,30.35,East,83,4.0,0.0,77,0.00,,,0.00,vanprod-2.5-rc3,2013-01-03 15:37:00,
2013-01-03 08:42:00,1.6,-4.2,30.34,East,80,0.0,0.0,76,0.00,,,0.00,vanprod-2.5-rc3,2013-01-03 15:42:00,
2013-01-03 08:47:00,2.1,-3.7,30.34,ENE,73,0.0,0.0,76,0.00,,,0.00,vanprod-2.5-rc3,2013-01-03 15:47:00,
2013-01-03 08:52:00,2.6,-3.2,30.34,ENE,73,0.0,0.0,76,0.00,,,0.00,vanprod-2.5-rc3,2013-01-03 15:52:00,
2013-01-03 08:57:00,2.8,-3.3,30.34,ENE,74,0.0,0.0,75,0.00,,,0.00,vanprod-2.5-rc3,2013-01-03 15:57:00,
2013-01-03 09:02:00,3.2,-2.9,30.34,East,84,4.0,4.0,75,0.00,,,0.00,vanprod-2.5-rc3,2013-01-03 16:02:00,
2013-01-03 09:07:00,3.4,-3.0,30.34,East,81,0.0,0.0,74,0.00,,,0.00,vanprod-2.5-rc3,2013-01-03 16:07:00,
2013-01-03 09:12:00,3.7,-2.7,30.34,SE,141,0.0,0.0,74,0.00,,,0.00,vanprod-2.5-rc3,2013-01-03 16:12:00,
2013-01-03 09:17:00,4.1,-2.3,30.34,SE,140,1.0,2.0,74,0.00,,,0.00,vanprod-2.5-rc3,2013-01-03 16:17:00,
2013-01-03 09:22:00,4.6,-1.8,30.35,SE,138,0.0,0.0,74,0.00,,,0.00,vanprod-2.5-rc3,2013-01-03 16:22:00,
2013-01-03 09:27:00,5.7,-0.8,30.35,ENE,73,0.0,0.0,74,0.00,,,0.00,vanprod-2.5-rc3,2013-01-03 16:27:00,
2013-01-03 09:32:00,6.8,0.0,30.34,ENE,65,0.0,0.0,73,0.00,,,0.00,vanprod-2.5-rc3,2013-01-03 16:32:00,
2013-01-03 09:37:00,7.7,0.6,30.34,East,81,0.0,0.0,72,0.00,,,0.00,vanprod-2.5-rc3,2013-01-03 16:37:00,
2013-01-03 09:42:00,8.2,0.8,30.34,East,83,0.0,0.0,71,0.00,,,0.00,vanprod-2.5-rc3,2013-01-03 16:42:00,
2013-01-03 09:47:00,8.2,0.1,30.34,East,91,0.0,0.0,69,0.00,,,0.00,vanprod-2.5-rc3,2013-01-03 16:47:00,
2013-01-03 09:52:00,7.7,-1.0,30.34,East,93,0.0,0.0,67,0.00,,,0.00,vanprod-2.5-rc3,2013-01-03 16:52:00,
2013-01-03 09:57:00,6.8,-1.8,30.34,SSE,148,0.0,0.0,67,0.00,,,0.00,vanprod-2.5-rc3,2013-01-03 16:57:00,
2013-01-03 10:02:00,7.7,0.3,30.35,East,85,0.0,0.0,71,0.00,,,0.00,vanprod-2.5-rc3,2013-01-03 17:02:00,
2013-01-03 10:07:00,8.7,1.2,30.34,ENE,62,0.0,0.0,71,0.00,,,0.00,vanprod-2.5-rc3,2013-01-03 17:07:00,
2013-01-03 10:12:00,9.9,1.8,30.34,ENE,62,0.0,0.0,69,0.00,,,0.00,vanprod-2.5-rc3,2013-01-03 17:12:00,
2013-01-03 10:17:00,10.6,1.8,30.35,ENE,71,0.0,0.0,67,0.00,,,0.00,vanprod-2.5-rc3,2013-01-03 17:17:00,
2013-01-03 10:22:00,10.9,1.1,30.35,NE,44,0.0,0.0,64,0.00,,,0.00,vanprod-2.5-rc3,2013-01-03 17:22:00,
2013-01-03 10:27:00,10.6,0.5,30.35,NE,48,0.0,0.0,63,0.00,,,0.00,vanprod-2.5-rc3,2013-01-03 17:27:00,
2013-01-03 10:32:00,9.9,-0.5,30.34,NE,46,0.0,0.0,62,0.00,,,0.00,vanprod-2.5-rc3,2013-01-03 17:32:00,
2013-01-03 10:37:00,9.5,-0.2,30.34,ENE,57,0.0,0.0,64,0.00,,,0.00,vanprod-2.5-rc3,2013-01-03 17:37:00,
2013-01-03 10:42:00,9.5,0.1,30.34,NE,50,0.0,0.0,65,0.00,,,0.00,vanprod-2.5-rc3,2013-01-03 17:42:00,
2013-01-03 10:47:00,9.5,0.1,30.33,ENE,60,0.0,0.0,65,0.00,,,0.00,vanprod-2.5-rc3,2013-01-03 17:47:00,
2013-01-03 10:52:00,9.6,0.2,30.33,NE,51,0.0,0.0,65,0.00,,,0.00,vanprod-2.5-rc3,2013-01-03 17:52:00,
2013-01-03 10:57:00,9.8,0.4,30.33,NNE,32,0.0,0.0,65,0.00,,,0.00,vanprod-2.5-rc3,2013-01-03 17:57:00,
2013-01-03 11:02:00,9.9,0.8,30.33,NE,38,0.0,0.0,66,0.00,,,0.00,vanprod-2.5-rc3,2013-01-03 18:02:00,
2013-01-03 11:07:00,10.2,1.4,30.33,ENE,73,0.0,0.0,67,0.00,,,0.00,vanprod-2.5-rc3,2013-01-03 18:07:00,
2013-01-03 11:12:00,10.6,1.2,30.33,ENE,59,0.0,0.0,65,0.00,,,0.00,vanprod-2.5-rc3,2013-01-03 18:12:00,
2013-01-03 11:17:00,11.0,1.9,30.32,East,85,0.0,0.0,66,0.00,,,0.00,vanprod-2.5-rc3,2013-01-03 18:17:00,
2013-01-03 11:22:00,11.2,1.7,30.32,East,83,0.0,0.0,65,0.00,,,0.00,vanprod-2.5-rc3,2013-01-03 18:22:00,
2013-01-03 11:27:00,11.5,2.0,30.33,East,82,0.0,0.0,65,0.00,,,0.00,vanprod-2.5-rc3,2013-01-03 18:27:00,
2013-01-03 11:32:00,11.8,2.3,30.32,East,82,0.0,0.0,65,0.00,,,0.00,vanprod-2.5-rc3,2013-01-03 18:32:00,
2013-01-03 11:37:00,12.1,2.3,30.32,ENE,71,0.0,0.0,64,0.00,,,0.00,vanprod-2.5-rc3,2013-01-03 18:37:00,
2013-01-03 11:42:00,12.4,2.6,30.32,East,83,0.0,0.0,64,0.00,,,0.00,vanprod-2.5-rc3,2013-01-03 18:42:00,
2013-01-03 11:47:00,12.8,2.9,30.32,East,88,0.0,0.0,64,0.00,,,0.00,vanprod-2.5-rc3,2013-01-03 18:47:00,
2013-01-03 11:52:00,13.2,3.0,30.31,East,86,0.0,0.0,63,0.00,,,0.00,vanprod-2.5-rc3,2013-01-03 18:52:00,
2013-01-03 11:57:00,13.7,3.5,30.32,East,83,0.0,0.0,63,0.00,,,0.00,vanprod-2.5-rc3,2013-01-03 18:57:00,
2013-01-03 12:02:00,14.2,3.6,30.30,East,86,0.0,0.0,62,0.00,,,0.00,vanprod-2.5-rc3,2013-01-03 19:02:00,
2013-01-03 12:07:00,14.6,4.0,30.31,East,81,0.0,0.0,62,0.00,,,0.00,vanprod-2.5-rc3,2013-01-03 19:07:00,
2013-01-03 12:12:00,14.9,4.2,30.31,ENE,77,0.0,0.0,62,0.00,,,0.00,vanprod-2.5-rc3,2013-01-03 19:12:00,
2013-01-03 12:17:00,15.3,4.3,30.30,East,85,0.0,0.0,61,0.00,,,0.00,vanprod-2.5-rc3,2013-01-03 19:17:00,
2013-01-03 12:29:00,15.9,3.4,30.29,NE,48,0.0,0.0,57,0.00,,,0.00,vanprod-2.5-rc3,2013-01-03 19:29:00,
2013-01-03 12:34:00,15.7,3.2,30.29,ENE,58,0.0,0.0,57,0.00,,,0.00,vanprod-2.5-rc3,2013-01-03 19:34:00,
2013-01-03 12:35:00,15.7,3.2,30.29,ENE,62,0.0,0.0,57,0.00,,,0.00,vanprod-2.5-rc3,2013-01-03 19:35:00,
2013-01-03 12:36:00,15.7,3.6,30.29,ENE,60,0.0,0.0,58,0.00,,,0.00,vanprod-2.5-rc3,2013-01-03 19:36:00,
2013-01-03 12:37:00,15.8,3.7,30.29,ENE,62,0.0,0.0,58,0.00,,,0.00,vanprod-2.5-rc3,2013-01-03 19:37:00,
2013-01-03 12:38:00,15.8,4.0,30.29,ENE,70,0.0,0.0,59,0.00,,,0.00,vanprod-2.5-rc3,2013-01-03 19:38:00,
2013-01-03 12:39:00,15.8,4.4,30.29,ENE,71,0.0,0.0,60,0.00,,,0.00,vanprod-2.5-rc3,2013-01-03 19:39:00,
2013-01-03 12:40:00,15.9,4.5,30.29,ENE,68,0.0,0.0,60,0.00,,,0.00,vanprod-2.5-rc3,2013-01-03 19:40:00,
2013-01-03 12:41:00,16.0,4.2,30.29,ENE,64,0.0,0.0,59,0.00,,,0.00,vanprod-2.5-rc3,2013-01-03 19:41:00,
2013-01-03 12:42:00,16.1,4.3,30.29,ENE,65,0.0,0.0,59,0.00,,,0.00,vanprod-2.5-rc3,2013-01-03 19:42:00,
2013-01-03 12:43:00,16.1,4.3,30.29,ENE,63,0.0,0.0,59,0.00,,,0.00,vanprod-2.5-rc3,2013-01-03 19:43:00,
2013-01-03 12:44:00,16.1,3.9,30.29,ENE,66,0.0,1.0,58,0.00,,,0.00,vanprod-2.5-rc3,2013-01-03 19:44:00,
2013-01-03 12:45:00,16.2,4.4,30.29,ENE,70,0.0,0.0,59,0.00,,,0.00,vanprod-2.5-rc3,2013-01-03 19:45:00,
2013-01-03 12:46:00,16.3,4.9,30.28,ENE,58,0.0,0.0,60,0.00,,,0.00,vanprod-2.5-rc3,2013-01-03 19:46:00,
2013-01-03 12:47:00,16.3,4.5,30.29,NE,51,0.0,0.0,59,0.00,,,0.00,vanprod-2.5-rc3,2013-01-03 19:47:00,
2013-01-03 12:48:00,16.4,4.6,30.29,NE,51,0.0,0.0,59,0.00,,,0.00,vanprod-2.5-rc3,2013-01-03 19:48:00,
2013-01-03 12:49:00,16.4,4.6,30.29,ENE,64,0.0,0.0,59,0.00,,,0.00,vanprod-2.5-rc3,2013-01-03 19:49:00,
2013-01-03 12:57:00,16.0,4.2,30.29,ENE,64,0.0,0.0,59,0.00,,,0.00,vanprod-2.5-rc3,2013-01-03 19:57:00,
2013-01-03 13:02:00,17.3,4.3,30.28,NNE,14,0.0,0.0,56,0.00,,,0.00,vanprod-2.5-rc3,2013-01-03 20:02:00,
2013-01-03 13:07:00,17.0,3.6,30.27,NE,37,0.0,0.0,55,0.00,,,0.00,vanprod-2.5-rc3,2013-01-03 20:07:00,
2013-01-03 13:12:00,17.1,4.1,30.27,NNE,24,0.0,0.0,56,0.00,,,0.00,vanprod-2.5-rc3,2013-01-03 20:12:00,
2013-01-03 13:17:00,17.2,4.2,30.27,NNE,18,0.0,0.0,56,0.00,,,0.00,vanprod-2.5-rc3,2013-01-03 20:17:00,
2013-01-03 13:22:00,17.3,3.9,30.26,NNE,15,0.0,0.0,55,0.00,,,0.00,vanprod-2.5-rc3,2013-01-03 20:22:00,
2013-01-03 13:27:00,17.7,4.7,30.25,NE,37,0.0,0.0,56,0.00,,,0.00,vanprod-2.5-rc3,2013-01-03 20:27:00,
2013-01-03 13:32:00,18.4,6.1,30.24,East,88,0.0,0.0,58,0.00,,,0.00,vanprod-2.5-rc3,2013-01-03 20:32:00,
2013-01-03 13:37:00,19.0,6.3,30.24,East,83,0.0,0.0,57,0.00,,,0.00,vanprod-2.5-rc3,2013-01-03 20:37:00,
2013-01-03 13:42:00,19.6,6.9,30.25,East,86,0.0,0.0,57,0.00,,,0.00,vanprod-2.5-rc3,2013-01-03 20:42:00,
2013-01-03 13:47:00,19.7,6.2,30.25,ENE,67,0.0,0.0,55,0.00,,,0.00,vanprod-2.5-rc3,2013-01-03 20:47:00,
2013-01-03 13:52:00,19.7,6.2,30.25,NE,56,0.0,0.0,55,0.00,,,0.00,vanprod-2.5-rc3,2013-01-03 20:52:00,
2013-01-03 13:57:00,19.7,5.8,30.25,ENE,62,0.0,0.0,54,0.00,,,0.00,vanprod-2.5-rc3,2013-01-03 20:57:00,
2013-01-03 14:02:00,19.5,6.4,30.25,East,84,0.0,0.0,56,0.00,,,0.00,vanprod-2.5-rc3,2013-01-03 21:02:00,
2013-01-03 14:07:00,19.4,6.3,30.25,East,94,0.0,0.0,56,0.00,,,0.00,vanprod-2.5-rc3,2013-01-03 21:07:00,
2013-01-03 14:12:00,19.5,6.4,30.25,East,92,0.0,0.0,56,0.00,,,0.00,vanprod-2.5-rc3,2013-01-03 21:12:00,
2013-01-03 14:17:00,19.6,6.5,30.25,East,92,0.0,0.0,56,0.00,,,0.00,vanprod-2.5-rc3,2013-01-03 21:17:00,
2013-01-03 14:22:00,19.7,5.8,30.25,East,92,0.0,0.0,54,0.00,,,0.00,vanprod-2.5-rc3,2013-01-03 21:22:00,
2013-01-03 14:27:00,19.7,5.8,30.25,East,93,0.0,0.0,54,0.00,,,0.00,vanprod-2.5-rc3,2013-01-03 21:27:00,
2013-01-03 14:32:00,19.7,5.8,30.25,East,93,0.0,0.0,54,0.00,,,0.00,vanprod-2.5-rc3,2013-01-03 21:32:00,
2013-01-03 14:37:00,19.8,6.3,30.24,ENE,66,0.0,0.0,55,0.00,,,0.00,vanprod-2.5-rc3,2013-01-03 21:37:00,
2013-01-03 14:42:00,19.9,6.4,30.24,East,95,0.0,0.0,55,0.00,,,0.00,vanprod-2.5-rc3,2013-01-03 21:42:00,
2013-01-03 14:47:00,20.0,6.8,30.25,East,97,0.0,0.0,56,0.00,,,0.00,vanprod-2.5-rc3,2013-01-03 21:47:00,
2013-01-03 14:52:00,19.9,6.4,30.24,East,82,0.0,0.0,55,0.00,,,0.00,vanprod-2.5-rc3,2013-01-03 21:52:00,
2013-01-03 14:57:00,20.0,6.4,30.24,East,82,0.0,0.0,55,0.00,,,0.00,vanprod-2.5-rc3,2013-01-03 21:57:00,
2013-01-03 15:02:00,20.0,6.4,30.24,East,82,0.0,0.0,55,0.00,,,0.00,vanprod-2.5-rc3,2013-01-03 22:02:00,
2013-01-03 15:07:00,20.0,6.4,30.24,East,81,0.0,0.0,55,0.00,,,0.00,vanprod-2.5-rc3,2013-01-03 22:07:00,
2013-01-03 15:12:00,20.0,6.4,30.24,East,81,0.0,0.0,55,0.00,,,0.00,vanprod-2.5-rc3,2013-01-03 22:12:00,
2013-01-03 15:17:00,20.0,6.0,30.24,East,81,0.0,0.0,54,0.00,,,0.00,vanprod-2.5-rc3,2013-01-03 22:17:00,
2013-01-03 15:22:00,20.0,6.0,30.24,East,82,0.0,0.0,54,0.00,,,0.00,vanprod-2.5-rc3,2013-01-03 22:22:00,
2013-01-03 15:27:00,20.0,6.0,30.24,East,81,0.0,0.0,54,0.00,,,0.00,vanprod-2.5-rc3,2013-01-03 22:27:00,
2013-01-03 15:32:00,19.9,5.5,30.24,East,81,0.0,0.0,53,0.00,,,0.00,vanprod-2.5-rc3,2013-01-03 22:32:00,
2013-01-03 15:37:00,20.0,6.0,30.24,East,82,0.0,0.0,54,0.00,,,0.00,vanprod-2.5-rc3,2013-01-03 22:37:00,
2013-01-03 15:42:00,19.9,5.9,30.24,East,82,0.0,0.0,54,0.00,,,0.00,vanprod-2.5-rc3,2013-01-03 22:42:00,
2013-01-03 15:47:00,19.7,6.2,30.24,East,82,0.0,0.0,55,0.00,,,0.00,vanprod-2.5-rc3,2013-01-03 22:47:00,
2013-01-03 15:52:00,19.6,6.1,30.24,East,82,0.0,0.0,55,0.00,,,0.00,vanprod-2.5-rc3,2013-01-03 22:52:00,
2013-01-03 15:57:00,19.3,6.2,30.23,East,82,0.0,0.0,56,0.00,,,0.00,vanprod-2.5-rc3,2013-01-03 22:57:00,
2013-01-03 16:02:00,19.0,5.5,30.24,East,82,0.0,0.0,55,0.00,,,0.00,vanprod-2.5-rc3,2013-01-03 23:02:00,
2013-01-03 16:07:00,18.9,5.4,30.24,East,82,0.0,0.0,55,0.00,,,0.00,vanprod-2.5-rc3,2013-01-03 23:07:00,
2013-01-03 16:12:00,18.6,5.1,30.24,East,82,0.0,0.0,55,0.00,,,0.00,vanprod-2.5-rc3,2013-01-03 23:12:00,
2013-01-03 16:17:00,18.4,4.5,30.24,East,82,0.0,0.0,54,0.00,,,0.00,vanprod-2.5-rc3,2013-01-03 23:17:00,
2013-01-03 16:22:00,18.2,4.4,30.24,East,82,0.0,0.0,54,0.00,,,0.00,vanprod-2.5-rc3,2013-01-03 23:22:00,
2013-01-03 16:27:00,18.1,4.3,30.24,East,82,0.0,0.0,54,0.00,,,0.00,vanprod-2.5-rc3,2013-01-03 23:27:00,
2013-01-03 16:32:00,18.0,4.6,30.25,East,82,0.0,0.0,55,0.00,,,0.00,vanprod-2.5-rc3,2013-01-03 23:32:00,
2013-01-03 16:37:00,17.8,4.4,30.25,East,82,0.0,0.0,55,0.00,,,0.00,vanprod-2.5-rc3,2013-01-03 23:37:00,
2013-01-03 16:42:00,17.5,4.1,30.25,East,82,0.0,0.0,55,0.00,,,0.00,vanprod-2.5-rc3,2013-01-03 23:42:00,
2013-01-03 16:47:00,17.3,3.9,30.24,East,82,0.0,0.0,55,0.00,,,0.00,vanprod-2.5-rc3,2013-01-03 23:47:00,
2013-01-03 16:52:00,17.1,3.3,30.24,ESE,107,0.0,0.0,54,0.00,,,0.00,vanprod-2.5-rc3,2013-01-03 23:52:00,
2013-01-03 16:57:00,17.0,3.2,30.25,ESE,110,0.0,0.0,54,0.00,,,0.00,vanprod-2.5-rc3,2013-01-03 23:57:00,
2013-01-03 17:02:00,16.7,3.0,30.25,ESE,109,0.0,0.0,54,0.00,,,0.00,vanprod-2.5-rc3,2013-01-04 00:02:00,
2013-01-03 17:07:00,15.3,2.0,30.24,East,92,0.0,0.0,55,0.00,,,0.00,vanprod-2.5-rc3,2013-01-04 00:07:00,
2013-01-03 17:12:00,14.3,2.2,30.25,East,92,0.0,0.0,58,0.00,,,0.00,vanprod-2.5-rc3,2013-01-04 00:12:00,
2013-01-03 17:17:00,13.7,2.0,30.25,East,92,0.0,0.0,59,0.00,,,0.00,vanprod-2.5-rc3,2013-01-04 00:17:00,
2013-01-03 17:22:00,13.2,1.9,30.25,East,92,0.0,0.0,60,0.00,,,0.00,vanprod-2.5-rc3,2013-01-04 00:22:00,
2013-01-03 17:27:00,12.2,1.0,30.25,East,92,0.0,0.0,60,0.00,,,0.00,vanprod-2.5-rc3,2013-01-04 00:27:00,
2013-01-03 17:32:00,11.2,0.4,30.25,East,92,0.0,0.0,61,0.00,,,0.00,vanprod-2.5-rc3,2013-01-04 00:32:00,
2013-01-03 17:37:00,10.5,-0.3,30.25,East,91,0.0,0.0,61,0.00,,,0.00,vanprod-2.5-rc3,2013-01-04 00:37:00,
2013-01-03 17:42:00,10.2,0.1,30.26,East,91,0.0,0.0,63,0.00,,,0.00,vanprod-2.5-rc3,2013-01-04 00:42:00,
2013-01-03 17:47:00,10.0,0.3,30.27,East,86,0.0,0.0,64,0.00,,,0.00,vanprod-2.5-rc3,2013-01-04 00:47:00,
2013-01-03 17:52:00,9.9,0.2,30.27,East,84,0.0,0.0,64,0.00,,,0.00,vanprod-2.5-rc3,2013-01-04 00:52:00,
2013-01-03 17:57:00,9.6,-0.1,30.27,East,84,0.0,0.0,64,0.00,,,0.00,vanprod-2.5-rc3,2013-01-04 00:57:00,
2013-01-03 18:02:00,9.0,-0.4,30.27,East,82,0.0,0.0,65,0.00,,,0.00,vanprod-2.5-rc3,2013-01-04 01:02:00,
2013-01-03 18:07:00,8.8,-0.5,30.27,East,82,0.0,0.0,65,0.00,,,0.00,vanprod-2.5-rc3,2013-01-04 01:07:00,
2013-01-03 18:12:00,8.6,-0.7,30.27,East,90,0.0,0.0,65,0.00,,,0.00,vanprod-2.5-rc3,2013-01-04 01:12:00,
2013-01-03 18:17:00,8.9,0.2,30.27,ESE,103,0.0,0.0,67,0.00,,,0.00,vanprod-2.5-rc3,2013-01-04 01:17:00,
2013-01-03 18:22:00,9.9,1.2,30.26,ESE,111,0.0,0.0,67,0.00,,,0.00,vanprod-2.5-rc3,2013-01-04 01:22:00,
2013-01-03 18:27:00,10.9,1.5,30.26,ESE,112,0.0,0.0,65,0.00,,,0.00,vanprod-2.5-rc3,2013-01-04 01:27:00,
2013-01-03 18:32:00,11.4,1.6,30.26,ESE,112,0.0,0.0,64,0.00,,,0.00,vanprod-2.5-rc3,2013-01-04 01:32:00,
2013-01-03 18:37:00,11.7,1.6,30.27,ESE,112,0.0,0.0,63,0.00,,,0.00,vanprod-2.5-rc3,2013-01-04 01:37:00,
2013-01-03 18:42:00,12.0,1.8,30.27,ESE,112,0.0,0.0,63,0.00,,,0.00,vanprod-2.5-rc3,2013-01-04 01:42:00,
2013-01-03 18:47:00,12.3,2.1,30.27,ESE,112,0.0,0.0,63,0.00,,,0.00,vanprod-2.5-rc3,2013-01-04 01:47:00,
2013-01-03 18:52:00,12.6,2.1,30.27,ESE,112,0.0,0.0,62,0.00,,,0.00,vanprod-2.5-rc3,2013-01-04 01:52:00,
2013-01-03 18:57:00,12.6,1.4,30.27,ESE,112,0.0,0.0,60,0.00,,,0.00,vanprod-2.5-rc3,2013-01-04 01:57:00,
2013-01-03 19:02:00,11.8,0.6,30.26,ESE,110,0.0,0.0,60,0.00,,,0.00,vanprod-2.5-rc3,2013-01-04 02:02:00,
2013-01-03 19:07:00,11.0,0.5,30.26,ESE,111,0.0,0.0,62,0.00,,,0.00,vanprod-2.5-rc3,2013-01-04 02:07:00,
2013-01-03 19:12:00,10.7,0.6,30.26,ESE,111,0.0,0.0,63,0.00,,,0.00,vanprod-2.5-rc3,2013-01-04 02:12:00,
2013-01-03 19:17:00,10.4,0.3,30.27,ESE,111,0.0,0.0,63,0.00,,,0.00,vanprod-2.5-rc3,2013-01-04 02:17:00,
2013-01-03 19:22:00,10.1,0.0,30.28,ESE,110,0.0,0.0,63,0.00,,,0.00,vanprod-2.5-rc3,2013-01-04 02:22:00,
2013-01-03 19:27:00,9.9,-0.2,30.28,ESE,110,0.0,0.0,63,0.00,,,0.00,vanprod-2.5-rc3,2013-01-04 02:27:00,
2013-01-03 19:32:00,9.9,0.2,30.27,ESE,109,0.0,0.0,64,0.00,,,0.00,vanprod-2.5-rc3,2013-01-04 02:32:00,
2013-01-03 19:37:00,9.4,-0.6,30.27,ESE,109,0.0,0.0,63,0.00,,,0.00,vanprod-2.5-rc3,2013-01-04 02:37:00,
2013-01-03 19:42:00,8.8,-1.2,30.27,ESE,109,0.0,0.0,63,0.00,,,0.00,vanprod-2.5-rc3,2013-01-04 02:42:00,
2013-01-03 19:47:00,8.0,-1.3,30.26,East,90,0.0,0.0,65,0.00,,,0.00,vanprod-2.5-rc3,2013-01-04 02:47:00,
2013-01-03 19:52:00,7.8,-0.9,30.26,ESE,109,0.0,0.0,67,0.00,,,0.00,vanprod-2.5-rc3,2013-01-04 02:52:00,
2013-01-03 19:57:00,8.3,-0.1,30.26,ESE,109,0.0,0.0,68,0.00,,,0.00,vanprod-2.5-rc3,2013-01-04 02:57:00,
2013-01-03 20:02:00,8.8,0.4,30.27,ESE,107,0.0,0.0,68,0.00,,,0.00,vanprod-2.5-rc3,2013-01-04 03:02:00,
2013-01-03 20:07:00,9.1,0.4,30.27,ESE,107,0.0,0.0,67,0.00,,,0.00,vanprod-2.5-rc3,2013-01-04 03:07:00,
2013-01-03 20:12:00,9.5,1.1,30.27,ESE,107,0.0,0.0,68,0.00,,,0.00,vanprod-2.5-rc3,2013-01-04 03:12:00,
2013-01-03 20:17:00,9.6,0.9,30.27,ESE,107,0.0,0.0,67,0.00,,,0.00,vanprod-2.5-rc3,2013-01-04 03:17:00,
2013-01-03 20:22:00,9.4,0.0,30.27,ENE,76,0.0,0.0,65,0.00,,,0.00,vanprod-2.5-rc3,2013-01-04 03:22:00,
2013-01-03 20:27:00,8.9,-0.1,30.27,East,96,0.0,0.0,66,0.00,,,0.00,vanprod-2.5-rc3,2013-01-04 03:27:00,
2013-01-03 20:32:00,8.9,0.5,30.27,East,90,0.0,0.0,68,0.00,,,0.00,vanprod-2.5-rc3,2013-01-04 03:32:00,
2013-01-03 20:37:00,9.0,0.6,30.27,East,83,3.0,0.0,68,0.00,,,0.00,vanprod-2.5-rc3,2013-01-04 03:37:00,
2013-01-03 20:42:00,9.1,0.7,30.27,ESE,103,1.0,0.0,68,0.00,,,0.00,vanprod-2.5-rc3,2013-01-04 03:42:00,
2013-01-03 20:47:00,9.2,0.5,30.27,East,90,3.0,3.0,67,0.00,,,0.00,vanprod-2.5-rc3,2013-01-04 03:47:00,
2013-01-03 20:52:00,9.1,0.4,30.27,East,91,5.0,5.0,67,0.00,,,0.00,vanprod-2.5-rc3,2013-01-04 03:52:00,
2013-01-03 20:57:00,9.1,0.4,30.27,East,85,3.0,3.0,67,0.00,,,0.00,vanprod-2.5-rc3,2013-01-04 03:57:00,
2013-01-03 21:02:00,8.9,-0.1,30.27,East,90,3.0,3.0,66,0.00,,,0.00,vanprod-2.5-rc3,2013-01-04 04:02:00,
2013-01-03 21:07:00,8.7,-0.3,30.27,East,94,3.0,3.0,66,0.00,,,0.00,vanprod-2.5-rc3,2013-01-04 04:07:00,
2013-01-03 21:12:00,8.5,-0.5,30.27,East,90,4.0,5.0,66,0.00,,,0.00,vanprod-2.5-rc3,2013-01-04 04:12:00,
2013-01-03 21:17:00,8.3,-0.4,30.26,East,84,4.0,4.0,67,0.00,,,0.00,vanprod-2.5-rc3,2013-01-04 04:17:00,
2013-01-03 21:22:00,8.0,-0.7,30.26,ENE,78,3.0,3.0,67,0.00,,,0.00,vanprod-2.5-rc3,2013-01-04 04:22:00,
2013-01-03 21:27:00,7.7,-1.0,30.26,ENE,78,0.0,0.0,67,0.00,,,0.00,vanprod-2.5-rc3,2013-01-04 04:27:00,
2013-01-03 21:32:00,7.6,-0.7,30.26,East,79,0.0,0.0,68,0.00,,,0.00,vanprod-2.5-rc3,2013-01-04 04:32:00,
2013-01-03 21:37:00,7.4,-0.6,30.26,East,79,0.0,0.0,69,0.00,,,0.00,vanprod-2.5-rc3,2013-01-04 04:37:00,
2013-01-03 21:42:00,7.2,-0.5,30.26,ENE,78,0.0,0.0,70,0.00,,,0.00,vanprod-2.5-rc3,2013-01-04 04:42:00,
2013-01-03 21:47:00,7.1,-0.6,30.26,ENE,78,0.0,0.0,70,0.00,,,0.00,vanprod-2.5-rc3,2013-01-04 04:47:00,
2013-01-03 21:52:00,7.0,-0.4,30.26,East,79,0.0,0.0,71,0.00,,,0.00,vanprod-2.5-rc3,2013-01-04 04:52:00,
2013-01-03 21:57:00,7.1,-0.3,30.26,East,79,0.0,0.0,71,0.00,,,0.00,vanprod-2.5-rc3,2013-01-04 04:57:00,
2013-01-03 22:00:00,7.1,-0.3,30.27,ENE,78,0.0,0.0,71,0.00,,,0.00,vanprod-2.5-rc3,2013-01-04 05:00:00,
2013-01-03 22:01:00,7.1,-0.3,30.27,ENE,78,0.0,0.0,71,0.00,,,0.00,vanprod-2.5-rc3,2013-01-04 05:01:00,
2013-01-03 22:03:00,7.1,-0.3,30.27,ENE,78,0.0,0.0,71,0.00,,,0.00,vanprod-2.5-rc3,2013-01-04 05:03:00,
2013-01-03 22:08:00,7.2,-0.2,30.27,East,79,0.0,0.0,71,0.00,,,0.00,vanprod-2.5-rc3,2013-01-04 05:08:00,
2013-01-03 22:13:00,7.1,-0.3,30.27,ENE,78,0.0,0.0,71,0.00,,,0.00,vanprod-2.5-rc3,2013-01-04 05:13:00,
2013-01-03 22:18:00,6.7,-1.6,30.27,ENE,78,0.0,0.0,68,0.00,,,0.00,vanprod-2.5-rc3,2013-01-04 05:18:00,
2013-01-03 22:23:00,6.3,-1.7,30.27,ENE,78,1.0,0.0,69,0.00,,,0.00,vanprod-2.5-rc3,2013-01-04 05:23:00,
2013-01-03 22:28:00,6.2,-1.5,30.27,East,94,0.0,0.0,70,0.00,,,0.00,vanprod-2.5-rc3,2013-01-04 05:28:00,
2013-01-03 22:33:00,6.1,-1.6,30.27,East,90,0.0,2.0,70,0.00,,,0.00,vanprod-2.5-rc3,2013-01-04 05:33:00,
2013-01-03 22:38:00,6.1,-1.6,30.27,East,88,2.0,3.0,70,0.00,,,0.00,vanprod-2.5-rc3,2013-01-04 05:38:00,
2013-01-03 22:43:00,6.0,-2.0,30.27,East,85,3.0,3.0,69,0.00,,,0.00,vanprod-2.5-rc3,2013-01-04 05:43:00,
2013-01-03 22:48:00,6.0,-1.7,30.27,East,89,3.0,3.0,70,0.00,,,0.00,vanprod-2.5-rc3,2013-01-04 05:48:00,
2013-01-03 22:53:00,6.2,-1.2,30.27,East,101,3.0,4.0,71,0.00,,,0.00,vanprod-2.5-rc3,2013-01-04 05:53:00,
2013-01-03 22:58:00,6.5,-0.9,30.27,ESE,103,4.0,5.0,71,0.00,,,0.00,vanprod-2.5-rc3,2013-01-04 05:58:00,
2013-01-03 23:03:00,6.9,-0.5,30.27,East,98,3.0,4.0,71,0.00,,,0.00,vanprod-2.5-rc3,2013-01-04 06:03:00,
2013-01-03 23:08:00,7.0,-0.7,30.27,East,88,4.0,4.0,70,0.00,,,0.00,vanprod-2.5-rc3,2013-01-04 06:08:00,
2013-01-03 23:13:00,6.9,-1.1,30.27,ENE,76,4.0,5.0,69,0.00,,,0.00,vanprod-2.5-rc3,2013-01-04 06:13:00,
2013-01-03 23:18:00,6.4,-1.6,30.27,ENE,69,2.0,5.0,69,0.00,,,0.00,vanprod-2.5-rc3,2013-01-04 06:18:00,
2013-01-03 23:23:00,6.0,-2.0,30.27,ENE,76,2.0,3.0,69,0.00,,,0.00,vanprod-2.5-rc3,2013-01-04 06:23:00,
2013-01-03 23:28:00,5.9,-1.5,30.27,ESE,102,0.0,0.0,71,0.00,,,0.00,vanprod-2.5-rc3,2013-01-04 06:28:00,
2013-01-03 23:33:00,5.8,-1.9,30.27,East,96,3.0,3.0,70,0.00,,,0.00,vanprod-2.5-rc3,2013-01-04 06:33:00,
2013-01-03 23:38:00,5.8,-1.3,30.27,East,92,1.0,1.0,72,0.00,,,0.00,vanprod-2.5-rc3,2013-01-04 06:38:00,
2013-01-03 23:43:00,5.9,-1.2,30.26,East,92,0.0,0.0,72,0.00,,,0.00,vanprod-2.5-rc3,2013-01-04 06:43:00,
2013-01-03 23:48:00,5.8,-1.6,30.26,East,89,0.0,0.0,71,0.00,,,0.00,vanprod-2.5-rc3,2013-01-04 06:48:00,
2013-01-03 23:53:00,5.5,-1.8,30.26,East,83,0.0,0.0,71,0.00,,,0.00,vanprod-2.5-rc3,2013-01-04 06:53:00,
2013-01-03 23:58:00,5.1,-2.2,30.27,ENE,78,0.0,0.0,71,0.00,,,0.00,vanprod-2.5-rc3,2013-01-04 06:58:00,